sensor_id;sensor_type;location;lat;lon;timestamp;P1;durP1;ratioP1;P2;durP2;ratioP2
68188;SDS011;66299;47.514;19.218;2023-06-14T00:02:16;16.92;;;8.90;;
68188;SDS011;66299;47.514;19.218;2023-06-14T00:04:45;16.75;;;8.52;;
68188;SDS011;66299;47.514;19.218;2023-06-14T00:07:15;16.90;;;8.95;;
68188;SDS011;66299;47.514;19.218;2023-06-14T00:09:45;16.60;;;8.57;;
68188;SDS011;66299;47.514;19.218;2023-06-14T00:12:13;15.55;;;8.73;;
68188;SDS011;66299;47.514;19.218;2023-06-14T00:14:46;17.60;;;9.00;;
68188;SDS011;66299;47.514;19.218;2023-06-14T00:17:16;16.90;;;8.70;;
68188;SDS011;66299;47.514;19.218;2023-06-14T00:19:45;19.38;;;9.23;;
68188;SDS011;66299;47.514;19.218;2023-06-14T00:22:14;17.13;;;9.20;;
68188;SDS011;66299;47.514;19.218;2023-06-14T00:24:44;18.42;;;9.38;;
68188;SDS011;66299;47.514;19.218;2023-06-14T00:27:18;19.75;;;9.02;;
68188;SDS011;66299;47.514;19.218;2023-06-14T00:29:48;20.77;;;10.35;;
68188;SDS011;66299;47.514;19.218;2023-06-14T00:32:18;17.02;;;9.57;;
68188;SDS011;66299;47.514;19.218;2023-06-14T00:34:51;19.33;;;10.13;;
68188;SDS011;66299;47.514;19.218;2023-06-14T00:37:19;19.98;;;10.10;;
68188;SDS011;66299;47.514;19.218;2023-06-14T00:39:51;23.33;;;10.13;;
68188;SDS011;66299;47.514;19.218;2023-06-14T00:42:23;20.08;;;10.43;;
68188;SDS011;66299;47.514;19.218;2023-06-14T00:44:54;24.25;;;10.95;;
68188;SDS011;66299;47.514;19.218;2023-06-14T00:47:23;20.70;;;10.57;;
68188;SDS011;66299;47.514;19.218;2023-06-14T00:49:59;20.23;;;10.60;;
68188;SDS011;66299;47.514;19.218;2023-06-14T00:52:30;24.80;;;11.82;;
68188;SDS011;66299;47.514;19.218;2023-06-14T00:55:01;21.05;;;11.25;;
68188;SDS011;66299;47.514;19.218;2023-06-14T00:57:30;20.80;;;10.88;;
68188;SDS011;66299;47.514;19.218;2023-06-14T00:59:59;21.65;;;11.32;;
68188;SDS011;66299;47.514;19.218;2023-06-14T01:02:29;19.92;;;10.15;;
68188;SDS011;66299;47.514;19.218;2023-06-14T01:04:57;23.27;;;11.20;;
68188;SDS011;66299;47.514;19.218;2023-06-14T01:07:30;20.83;;;11.30;;
68188;SDS011;66299;47.514;19.218;2023-06-14T01:10:12;20.65;;;10.50;;
68188;SDS011;66299;47.514;19.218;2023-06-14T01:12:50;20.38;;;11.00;;
68188;SDS011;66299;47.514;19.218;2023-06-14T01:15:26;20.10;;;10.93;;
68188;SDS011;66299;47.514;19.218;2023-06-14T01:18:04;25.52;;;11.27;;
68188;SDS011;66299;47.514;19.218;2023-06-14T01:20:44;22.77;;;11.32;;
68188;SDS011;66299;47.514;19.218;2023-06-14T01:23:18;20.63;;;11.10;;
68188;SDS011;66299;47.514;19.218;2023-06-14T01:25:48;21.52;;;11.35;;
68188;SDS011;66299;47.514;19.218;2023-06-14T01:28:21;21.02;;;11.40;;
68188;SDS011;66299;47.514;19.218;2023-06-14T01:30:59;23.63;;;11.65;;
68188;SDS011;66299;47.514;19.218;2023-06-14T01:33:31;21.77;;;11.02;;
68188;SDS011;66299;47.514;19.218;2023-06-14T01:36:02;21.42;;;11.60;;
68188;SDS011;66299;47.514;19.218;2023-06-14T01:38:37;20.85;;;11.35;;
68188;SDS011;66299;47.514;19.218;2023-06-14T01:41:07;23.90;;;11.40;;
68188;SDS011;66299;47.514;19.218;2023-06-14T01:43:39;22.83;;;11.70;;
68188;SDS011;66299;47.514;19.218;2023-06-14T01:46:10;23.50;;;12.32;;
68188;SDS011;66299;47.514;19.218;2023-06-14T01:48:39;22.77;;;11.27;;
68188;SDS011;66299;47.514;19.218;2023-06-14T01:51:08;23.70;;;11.77;;
68188;SDS011;66299;47.514;19.218;2023-06-14T01:53:41;23.48;;;11.73;;
68188;SDS011;66299;47.514;19.218;2023-06-14T01:56:11;22.35;;;12.07;;
68188;SDS011;66299;47.514;19.218;2023-06-14T01:58:39;22.58;;;11.73;;
68188;SDS011;66299;47.514;19.218;2023-06-14T02:01:11;21.88;;;11.73;;
68188;SDS011;66299;47.514;19.218;2023-06-14T02:03:39;24.17;;;12.45;;
68188;SDS011;66299;47.514;19.218;2023-06-14T02:06:07;21.52;;;11.90;;
68188;SDS011;66299;47.514;19.218;2023-06-14T02:08:41;21.85;;;12.00;;
68188;SDS011;66299;47.514;19.218;2023-06-14T02:11:12;23.92;;;12.63;;
68188;SDS011;66299;47.514;19.218;2023-06-14T02:13:43;23.65;;;12.68;;
68188;SDS011;66299;47.514;19.218;2023-06-14T02:16:12;22.80;;;12.63;;
68188;SDS011;66299;47.514;19.218;2023-06-14T02:18:41;23.45;;;12.65;;
68188;SDS011;66299;47.514;19.218;2023-06-14T02:21:10;25.00;;;12.43;;
68188;SDS011;66299;47.514;19.218;2023-06-14T02:23:41;25.52;;;12.82;;
68188;SDS011;66299;47.514;19.218;2023-06-14T02:26:13;25.38;;;13.15;;
68188;SDS011;66299;47.514;19.218;2023-06-14T02:28:41;25.50;;;12.43;;
68188;SDS011;66299;47.514;19.218;2023-06-14T02:31:12;25.15;;;12.80;;
68188;SDS011;66299;47.514;19.218;2023-06-14T02:33:40;24.85;;;12.68;;
68188;SDS011;66299;47.514;19.218;2023-06-14T02:36:09;22.60;;;11.55;;
68188;SDS011;66299;47.514;19.218;2023-06-14T02:38:44;24.83;;;12.95;;
68188;SDS011;66299;47.514;19.218;2023-06-14T02:41:13;23.20;;;11.93;;
68188;SDS011;66299;47.514;19.218;2023-06-14T02:43:42;23.45;;;12.35;;
68188;SDS011;66299;47.514;19.218;2023-06-14T02:46:11;24.40;;;13.32;;
68188;SDS011;66299;47.514;19.218;2023-06-14T02:48:40;24.33;;;12.07;;
68188;SDS011;66299;47.514;19.218;2023-06-14T02:51:09;24.67;;;12.55;;
68188;SDS011;66299;47.514;19.218;2023-06-14T02:53:38;24.48;;;12.85;;
68188;SDS011;66299;47.514;19.218;2023-06-14T02:56:16;29.40;;;12.93;;
68188;SDS011;66299;47.514;19.218;2023-06-14T02:58:48;24.88;;;12.50;;
68188;SDS011;66299;47.514;19.218;2023-06-14T03:01:19;24.98;;;12.30;;
68188;SDS011;66299;47.514;19.218;2023-06-14T03:03:50;25.63;;;13.57;;
68188;SDS011;66299;47.514;19.218;2023-06-14T03:06:23;26.13;;;13.00;;
68188;SDS011;66299;47.514;19.218;2023-06-14T03:08:52;24.23;;;12.20;;
68188;SDS011;66299;47.514;19.218;2023-06-14T03:11:23;26.33;;;13.65;;
68188;SDS011;66299;47.514;19.218;2023-06-14T03:13:52;28.02;;;13.30;;
68188;SDS011;66299;47.514;19.218;2023-06-14T03:16:21;23.15;;;12.70;;
68188;SDS011;66299;47.514;19.218;2023-06-14T03:18:51;24.13;;;12.27;;
68188;SDS011;66299;47.514;19.218;2023-06-14T03:21:20;24.17;;;12.38;;
68188;SDS011;66299;47.514;19.218;2023-06-14T03:23:55;23.15;;;12.25;;
68188;SDS011;66299;47.514;19.218;2023-06-14T03:26:26;25.58;;;11.73;;
68188;SDS011;66299;47.514;19.218;2023-06-14T03:29:05;24.85;;;12.13;;
68188;SDS011;66299;47.514;19.218;2023-06-14T03:31:34;21.40;;;11.27;;
68188;SDS011;66299;47.514;19.218;2023-06-14T03:34:02;21.65;;;11.15;;
68188;SDS011;66299;47.514;19.218;2023-06-14T03:36:31;25.75;;;12.48;;
68188;SDS011;66299;47.514;19.218;2023-06-14T03:39:00;24.98;;;12.32;;
68188;SDS011;66299;47.514;19.218;2023-06-14T03:41:34;24.80;;;11.98;;
68188;SDS011;66299;47.514;19.218;2023-06-14T03:44:03;23.98;;;11.73;;
68188;SDS011;66299;47.514;19.218;2023-06-14T03:46:32;23.25;;;11.48;;
68188;SDS011;66299;47.514;19.218;2023-06-14T03:49:01;22.40;;;11.45;;
68188;SDS011;66299;47.514;19.218;2023-06-14T03:51:29;24.35;;;11.73;;
68188;SDS011;66299;47.514;19.218;2023-06-14T03:54:02;23.23;;;11.60;;
68188;SDS011;66299;47.514;19.218;2023-06-14T03:56:52;22.23;;;11.40;;
68188;SDS011;66299;47.514;19.218;2023-06-14T03:59:21;23.15;;;11.23;;
68188;SDS011;66299;47.514;19.218;2023-06-14T04:01:50;25.30;;;11.38;;
68188;SDS011;66299;47.514;19.218;2023-06-14T04:04:21;22.10;;;11.10;;
68188;SDS011;66299;47.514;19.218;2023-06-14T04:07:01;21.70;;;11.00;;
68188;SDS011;66299;47.514;19.218;2023-06-14T04:09:33;21.50;;;10.57;;
68188;SDS011;66299;47.514;19.218;2023-06-14T04:12:03;22.63;;;10.68;;
68188;SDS011;66299;47.514;19.218;2023-06-14T04:14:33;20.60;;;10.35;;
68188;SDS011;66299;47.514;19.218;2023-06-14T04:17:01;22.15;;;10.68;;
68188;SDS011;66299;47.514;19.218;2023-06-14T04:19:31;19.73;;;10.15;;
68188;SDS011;66299;47.514;19.218;2023-06-14T04:22:00;20.95;;;9.95;;
68188;SDS011;66299;47.514;19.218;2023-06-14T04:24:29;21.15;;;9.60;;
68188;SDS011;66299;47.514;19.218;2023-06-14T04:26:59;20.23;;;9.93;;
68188;SDS011;66299;47.514;19.218;2023-06-14T04:29:30;21.60;;;9.80;;
68188;SDS011;66299;47.514;19.218;2023-06-14T04:32:02;21.23;;;9.35;;
68188;SDS011;66299;47.514;19.218;2023-06-14T04:34:31;21.38;;;10.20;;
68188;SDS011;66299;47.514;19.218;2023-06-14T04:37:07;22.23;;;9.75;;
68188;SDS011;66299;47.514;19.218;2023-06-14T04:39:39;19.10;;;9.75;;
68188;SDS011;66299;47.514;19.218;2023-06-14T04:42:09;17.75;;;8.95;;
68188;SDS011;66299;47.514;19.218;2023-06-14T04:44:40;17.85;;;9.38;;
68188;SDS011;66299;47.514;19.218;2023-06-14T04:47:10;19.90;;;9.25;;
68188;SDS011;66299;47.514;19.218;2023-06-14T04:49:43;19.58;;;9.15;;
68188;SDS011;66299;47.514;19.218;2023-06-14T04:52:12;17.92;;;9.15;;
68188;SDS011;66299;47.514;19.218;2023-06-14T04:54:42;19.70;;;9.05;;
68188;SDS011;66299;47.514;19.218;2023-06-14T04:57:12;21.58;;;9.77;;
68188;SDS011;66299;47.514;19.218;2023-06-14T04:59:45;19.63;;;8.70;;
68188;SDS011;66299;47.514;19.218;2023-06-14T05:02:22;19.70;;;9.35;;
68188;SDS011;66299;47.514;19.218;2023-06-14T05:04:59;20.85;;;8.85;;
68188;SDS011;66299;47.514;19.218;2023-06-14T05:07:28;19.63;;;9.13;;
68188;SDS011;66299;47.514;19.218;2023-06-14T05:09:57;19.75;;;9.05;;
68188;SDS011;66299;47.514;19.218;2023-06-14T05:12:27;18.25;;;9.05;;
68188;SDS011;66299;47.514;19.218;2023-06-14T05:14:57;18.48;;;8.98;;
68188;SDS011;66299;47.514;19.218;2023-06-14T05:17:26;17.30;;;8.40;;
68188;SDS011;66299;47.514;19.218;2023-06-14T05:19:59;22.17;;;8.68;;
68188;SDS011;66299;47.514;19.218;2023-06-14T05:22:27;18.13;;;8.80;;
68188;SDS011;66299;47.514;19.218;2023-06-14T05:24:57;18.92;;;8.60;;
68188;SDS011;66299;47.514;19.218;2023-06-14T05:27:28;16.88;;;8.30;;
68188;SDS011;66299;47.514;19.218;2023-06-14T05:30:02;18.13;;;8.38;;
68188;SDS011;66299;47.514;19.218;2023-06-14T05:35:02;18.05;;;7.93;;
68188;SDS011;66299;47.514;19.218;2023-06-14T05:37:33;17.27;;;7.20;;
68188;SDS011;66299;47.514;19.218;2023-06-14T05:40:03;15.02;;;7.50;;
68188;SDS011;66299;47.514;19.218;2023-06-14T05:42:33;15.32;;;7.60;;
68188;SDS011;66299;47.514;19.218;2023-06-14T05:45:04;14.10;;;6.90;;
68188;SDS011;66299;47.514;19.218;2023-06-14T05:47:35;18.00;;;7.10;;
68188;SDS011;66299;47.514;19.218;2023-06-14T05:50:04;14.07;;;6.80;;
68188;SDS011;66299;47.514;19.218;2023-06-14T05:52:36;13.60;;;6.50;;
68188;SDS011;66299;47.514;19.218;2023-06-14T05:55:05;15.75;;;6.50;;
68188;SDS011;66299;47.514;19.218;2023-06-14T05:57:34;14.77;;;6.40;;
68188;SDS011;66299;47.514;19.218;2023-06-14T06:00:07;14.45;;;6.70;;
68188;SDS011;66299;47.514;19.218;2023-06-14T06:02:41;15.88;;;7.20;;
68188;SDS011;66299;47.514;19.218;2023-06-14T06:05:12;15.20;;;6.97;;
68188;SDS011;66299;47.514;19.218;2023-06-14T06:07:44;14.35;;;6.38;;
68188;SDS011;66299;47.514;19.218;2023-06-14T06:10:14;13.88;;;6.60;;
68188;SDS011;66299;47.514;19.218;2023-06-14T06:12:44;14.45;;;6.65;;
68188;SDS011;66299;47.514;19.218;2023-06-14T06:15:16;18.20;;;7.13;;
68188;SDS011;66299;47.514;19.218;2023-06-14T06:17:46;14.30;;;6.57;;
68188;SDS011;66299;47.514;19.218;2023-06-14T06:20:23;14.10;;;6.43;;
68188;SDS011;66299;47.514;19.218;2023-06-14T06:22:56;17.60;;;6.43;;
68188;SDS011;66299;47.514;19.218;2023-06-14T06:25:27;14.52;;;6.75;;
68188;SDS011;66299;47.514;19.218;2023-06-14T06:27:59;14.45;;;6.68;;
68188;SDS011;66299;47.514;19.218;2023-06-14T06:30:29;15.20;;;6.25;;
68188;SDS011;66299;47.514;19.218;2023-06-14T06:32:58;14.23;;;6.18;;
68188;SDS011;66299;47.514;19.218;2023-06-14T06:35:27;12.75;;;6.10;;
68188;SDS011;66299;47.514;19.218;2023-06-14T06:37:57;14.93;;;6.30;;
68188;SDS011;66299;47.514;19.218;2023-06-14T06:40:25;13.27;;;6.20;;
68188;SDS011;66299;47.514;19.218;2023-06-14T06:42:56;16.98;;;6.88;;
68188;SDS011;66299;47.514;19.218;2023-06-14T06:45:27;13.70;;;5.85;;
68188;SDS011;66299;47.514;19.218;2023-06-14T06:47:57;12.65;;;5.82;;
68188;SDS011;66299;47.514;19.218;2023-06-14T06:50:25;14.00;;;6.35;;
68188;SDS011;66299;47.514;19.218;2023-06-14T06:52:56;14.80;;;6.13;;
68188;SDS011;66299;47.514;19.218;2023-06-14T06:55:24;12.80;;;5.70;;
68188;SDS011;66299;47.514;19.218;2023-06-14T06:57:53;12.95;;;5.97;;
68188;SDS011;66299;47.514;19.218;2023-06-14T07:00:24;13.20;;;5.43;;
68188;SDS011;66299;47.514;19.218;2023-06-14T07:02:54;12.27;;;5.15;;
68188;SDS011;66299;47.514;19.218;2023-06-14T07:05:25;14.38;;;5.50;;
68188;SDS011;66299;47.514;19.218;2023-06-14T07:07:57;11.35;;;5.30;;
68188;SDS011;66299;47.514;19.218;2023-06-14T07:10:29;11.18;;;4.90;;
68188;SDS011;66299;47.514;19.218;2023-06-14T07:12:59;12.25;;;5.47;;
68188;SDS011;66299;47.514;19.218;2023-06-14T07:15:36;11.07;;;4.80;;
68188;SDS011;66299;47.514;19.218;2023-06-14T07:18:09;11.63;;;5.15;;
68188;SDS011;66299;47.514;19.218;2023-06-14T07:20:44;14.25;;;5.35;;
68188;SDS011;66299;47.514;19.218;2023-06-14T07:23:16;12.02;;;5.25;;
68188;SDS011;66299;47.514;19.218;2023-06-14T07:25:54;11.02;;;5.18;;
68188;SDS011;66299;47.514;19.218;2023-06-14T07:28:27;11.77;;;5.03;;
68188;SDS011;66299;47.514;19.218;2023-06-14T07:30:56;13.05;;;5.35;;
68188;SDS011;66299;47.514;19.218;2023-06-14T07:33:29;12.93;;;5.57;;
68188;SDS011;66299;47.514;19.218;2023-06-14T07:36:01;15.15;;;5.60;;
68188;SDS011;66299;47.514;19.218;2023-06-14T07:38:33;11.70;;;5.20;;
68188;SDS011;66299;47.514;19.218;2023-06-14T07:41:07;12.00;;;5.38;;
68188;SDS011;66299;47.514;19.218;2023-06-14T07:43:36;12.98;;;5.35;;
68188;SDS011;66299;47.514;19.218;2023-06-14T07:46:06;12.40;;;5.30;;
68188;SDS011;66299;47.514;19.218;2023-06-14T07:48:40;12.30;;;5.10;;
68188;SDS011;66299;47.514;19.218;2023-06-14T07:51:13;12.95;;;5.47;;
68188;SDS011;66299;47.514;19.218;2023-06-14T07:53:48;10.55;;;4.85;;
68188;SDS011;66299;47.514;19.218;2023-06-14T07:56:21;12.30;;;5.28;;
68188;SDS011;66299;47.514;19.218;2023-06-14T07:58:52;13.35;;;5.25;;
68188;SDS011;66299;47.514;19.218;2023-06-14T08:01:25;13.25;;;5.07;;
68188;SDS011;66299;47.514;19.218;2023-06-14T08:03:56;11.23;;;5.35;;
68188;SDS011;66299;47.514;19.218;2023-06-14T08:06:27;13.27;;;5.18;;
68188;SDS011;66299;47.514;19.218;2023-06-14T08:11:25;14.43;;;4.80;;
68188;SDS011;66299;47.514;19.218;2023-06-14T08:13:57;14.25;;;4.78;;
68188;SDS011;66299;47.514;19.218;2023-06-14T08:16:26;10.10;;;4.60;;
68188;SDS011;66299;47.514;19.218;2023-06-14T08:18:56;10.48;;;4.72;;
68188;SDS011;66299;47.514;19.218;2023-06-14T08:21:30;13.45;;;5.03;;
68188;SDS011;66299;47.514;19.218;2023-06-14T08:24:03;11.48;;;4.63;;
68188;SDS011;66299;47.514;19.218;2023-06-14T08:26:42;16.08;;;4.82;;
68188;SDS011;66299;47.514;19.218;2023-06-14T08:29:17;11.60;;;4.90;;
68188;SDS011;66299;47.514;19.218;2023-06-14T08:31:46;11.15;;;4.93;;
68188;SDS011;66299;47.514;19.218;2023-06-14T08:34:18;13.25;;;4.93;;
68188;SDS011;66299;47.514;19.218;2023-06-14T08:36:51;11.38;;;5.30;;
68188;SDS011;66299;47.514;19.218;2023-06-14T08:39:24;14.68;;;4.97;;
68188;SDS011;66299;47.514;19.218;2023-06-14T08:41:54;11.15;;;4.78;;
68188;SDS011;66299;47.514;19.218;2023-06-14T08:44:27;14.90;;;5.15;;
68188;SDS011;66299;47.514;19.218;2023-06-14T08:46:59;12.20;;;4.57;;
68188;SDS011;66299;47.514;19.218;2023-06-14T08:49:34;10.98;;;4.60;;
68188;SDS011;66299;47.514;19.218;2023-06-14T08:52:08;11.38;;;4.78;;
68188;SDS011;66299;47.514;19.218;2023-06-14T08:54:41;12.27;;;4.50;;
68188;SDS011;66299;47.514;19.218;2023-06-14T08:57:12;13.02;;;4.82;;
68188;SDS011;66299;47.514;19.218;2023-06-14T08:59:45;14.35;;;4.90;;
68188;SDS011;66299;47.514;19.218;2023-06-14T09:02:19;12.15;;;4.88;;
68188;SDS011;66299;47.514;19.218;2023-06-14T09:05:08;13.10;;;4.40;;
68188;SDS011;66299;47.514;19.218;2023-06-14T09:07:43;14.95;;;4.47;;
68188;SDS011;66299;47.514;19.218;2023-06-14T09:10:18;14.60;;;4.38;;
68188;SDS011;66299;47.514;19.218;2023-06-14T09:12:51;11.48;;;4.55;;
68188;SDS011;66299;47.514;19.218;2023-06-14T09:17:56;11.65;;;4.40;;
68188;SDS011;66299;47.514;19.218;2023-06-14T09:20:25;11.50;;;3.97;;
68188;SDS011;66299;47.514;19.218;2023-06-14T09:23:00;10.27;;;4.13;;
68188;SDS011;66299;47.514;19.218;2023-06-14T09:25:32;10.57;;;4.25;;
68188;SDS011;66299;47.514;19.218;2023-06-14T09:28:06;12.63;;;4.28;;
68188;SDS011;66299;47.514;19.218;2023-06-14T09:30:38;12.83;;;4.70;;
68188;SDS011;66299;47.514;19.218;2023-06-14T09:33:09;16.42;;;4.88;;
68188;SDS011;66299;47.514;19.218;2023-06-14T09:35:41;12.77;;;4.40;;
68188;SDS011;66299;47.514;19.218;2023-06-14T09:38:15;12.90;;;4.70;;
68188;SDS011;66299;47.514;19.218;2023-06-14T09:40:45;14.43;;;4.68;;
68188;SDS011;66299;47.514;19.218;2023-06-14T09:43:19;16.23;;;4.38;;
68188;SDS011;66299;47.514;19.218;2023-06-14T09:45:54;13.32;;;3.83;;
68188;SDS011;66299;47.514;19.218;2023-06-14T09:50:53;10.90;;;3.85;;
68188;SDS011;66299;47.514;19.218;2023-06-14T09:53:33;12.02;;;4.20;;
68188;SDS011;66299;47.514;19.218;2023-06-14T09:56:10;13.35;;;4.78;;
68188;SDS011;66299;47.514;19.218;2023-06-14T09:58:44;13.98;;;4.40;;
68188;SDS011;66299;47.514;19.218;2023-06-14T10:01:38;9.88;;;4.20;;
68188;SDS011;66299;47.514;19.218;2023-06-14T10:04:11;9.45;;;3.38;;
68188;SDS011;66299;47.514;19.218;2023-06-14T10:06:52;13.05;;;3.67;;
68188;SDS011;66299;47.514;19.218;2023-06-14T10:09:28;10.77;;;3.80;;
68188;SDS011;66299;47.514;19.218;2023-06-14T10:12:03;10.32;;;3.60;;
68188;SDS011;66299;47.514;19.218;2023-06-14T10:14:38;17.92;;;3.90;;
68188;SDS011;66299;47.514;19.218;2023-06-14T10:17:08;13.18;;;4.35;;
68188;SDS011;66299;47.514;19.218;2023-06-14T10:19:48;16.15;;;4.20;;
68188;SDS011;66299;47.514;19.218;2023-06-14T10:22:26;11.55;;;3.55;;
68188;SDS011;66299;47.514;19.218;2023-06-14T10:25:10;10.05;;;3.38;;
68188;SDS011;66299;47.514;19.218;2023-06-14T10:27:56;9.75;;;3.40;;
68188;SDS011;66299;47.514;19.218;2023-06-14T10:31:03;8.70;;;3.30;;
68188;SDS011;66299;47.514;19.218;2023-06-14T10:33:50;11.55;;;3.70;;
68188;SDS011;66299;47.514;19.218;2023-06-14T10:36:28;9.85;;;3.42;;
68188;SDS011;66299;47.514;19.218;2023-06-14T10:39:06;10.13;;;3.60;;
68188;SDS011;66299;47.514;19.218;2023-06-14T10:41:41;9.80;;;3.95;;
68188;SDS011;66299;47.514;19.218;2023-06-14T10:44:34;10.98;;;3.42;;
68188;SDS011;66299;47.514;19.218;2023-06-14T10:47:21;10.77;;;3.83;;
68188;SDS011;66299;47.514;19.218;2023-06-14T10:49:54;9.35;;;3.60;;
68188;SDS011;66299;47.514;19.218;2023-06-14T10:52:28;9.88;;;3.40;;
68188;SDS011;66299;47.514;19.218;2023-06-14T10:54:59;8.63;;;3.38;;
68188;SDS011;66299;47.514;19.218;2023-06-14T10:57:40;11.15;;;3.50;;
68188;SDS011;66299;47.514;19.218;2023-06-14T11:00:19;9.32;;;3.42;;
68188;SDS011;66299;47.514;19.218;2023-06-14T11:06:09;8.85;;;3.45;;
68188;SDS011;66299;47.514;19.218;2023-06-14T11:11:45;9.25;;;3.20;;
68188;SDS011;66299;47.514;19.218;2023-06-14T11:14:27;8.50;;;3.08;;
68188;SDS011;66299;47.514;19.218;2023-06-14T11:17:00;9.73;;;3.17;;
68188;SDS011;66299;47.514;19.218;2023-06-14T11:19:31;10.57;;;3.30;;
68188;SDS011;66299;47.514;19.218;2023-06-14T11:22:02;9.68;;;3.38;;
68188;SDS011;66299;47.514;19.218;2023-06-14T11:24:39;11.52;;;3.25;;
68188;SDS011;66299;47.514;19.218;2023-06-14T11:27:12;10.10;;;3.13;;
68188;SDS011;66299;47.514;19.218;2023-06-14T11:29:48;9.70;;;3.83;;
68188;SDS011;66299;47.514;19.218;2023-06-14T11:32:18;12.27;;;3.50;;
68188;SDS011;66299;47.514;19.218;2023-06-14T11:34:48;8.52;;;3.35;;
68188;SDS011;66299;47.514;19.218;2023-06-14T11:37:19;10.68;;;3.58;;
68188;SDS011;66299;47.514;19.218;2023-06-14T11:39:50;10.20;;;3.42;;
68188;SDS011;66299;47.514;19.218;2023-06-14T11:42:20;10.70;;;3.40;;
68188;SDS011;66299;47.514;19.218;2023-06-14T11:44:54;11.30;;;3.40;;
68188;SDS011;66299;47.514;19.218;2023-06-14T11:47:35;9.52;;;3.65;;
68188;SDS011;66299;47.514;19.218;2023-06-14T11:50:08;11.95;;;3.60;;
68188;SDS011;66299;47.514;19.218;2023-06-14T11:52:39;10.45;;;3.90;;
68188;SDS011;66299;47.514;19.218;2023-06-14T11:55:11;10.10;;;3.85;;
68188;SDS011;66299;47.514;19.218;2023-06-14T11:57:46;8.98;;;3.95;;
68188;SDS011;66299;47.514;19.218;2023-06-14T12:00:18;9.30;;;3.80;;
68188;SDS011;66299;47.514;19.218;2023-06-14T12:02:54;9.95;;;3.70;;
68188;SDS011;66299;47.514;19.218;2023-06-14T12:05:24;10.25;;;3.60;;
68188;SDS011;66299;47.514;19.218;2023-06-14T12:07:59;13.85;;;4.13;;
68188;SDS011;66299;47.514;19.218;2023-06-14T12:10:29;8.98;;;3.58;;
68188;SDS011;66299;47.514;19.218;2023-06-14T12:13:01;10.77;;;3.90;;
68188;SDS011;66299;47.514;19.218;2023-06-14T12:15:32;9.77;;;4.05;;
68188;SDS011;66299;47.514;19.218;2023-06-14T12:18:01;12.80;;;4.20;;
68188;SDS011;66299;47.514;19.218;2023-06-14T12:20:33;10.88;;;3.80;;
68188;SDS011;66299;47.514;19.218;2023-06-14T12:23:03;12.88;;;3.90;;
68188;SDS011;66299;47.514;19.218;2023-06-14T12:25:35;10.32;;;3.63;;
68188;SDS011;66299;47.514;19.218;2023-06-14T12:28:06;13.00;;;3.80;;
68188;SDS011;66299;47.514;19.218;2023-06-14T12:30:37;10.30;;;3.60;;
68188;SDS011;66299;47.514;19.218;2023-06-14T12:33:06;13.55;;;4.05;;
68188;SDS011;66299;47.514;19.218;2023-06-14T12:35:36;8.73;;;3.67;;
68188;SDS011;66299;47.514;19.218;2023-06-14T12:38:05;9.75;;;3.70;;
68188;SDS011;66299;47.514;19.218;2023-06-14T12:40:37;10.80;;;3.55;;
68188;SDS011;66299;47.514;19.218;2023-06-14T12:43:08;10.95;;;3.50;;
68188;SDS011;66299;47.514;19.218;2023-06-14T12:45:41;10.70;;;3.88;;
68188;SDS011;66299;47.514;19.218;2023-06-14T12:48:11;9.98;;;3.75;;
68188;SDS011;66299;47.514;19.218;2023-06-14T12:50:43;13.98;;;3.80;;
68188;SDS011;66299;47.514;19.218;2023-06-14T12:53:16;10.18;;;3.38;;
68188;SDS011;66299;47.514;19.218;2023-06-14T12:55:44;12.85;;;3.65;;
68188;SDS011;66299;47.514;19.218;2023-06-14T12:58:13;9.07;;;3.72;;
68188;SDS011;66299;47.514;19.218;2023-06-14T13:00:45;11.25;;;3.70;;
68188;SDS011;66299;47.514;19.218;2023-06-14T13:03:14;9.40;;;3.70;;
68188;SDS011;66299;47.514;19.218;2023-06-14T13:05:44;8.40;;;3.55;;
68188;SDS011;66299;47.514;19.218;2023-06-14T13:08:15;11.18;;;4.00;;
68188;SDS011;66299;47.514;19.218;2023-06-14T13:10:43;11.93;;;3.60;;
68188;SDS011;66299;47.514;19.218;2023-06-14T13:13:12;9.48;;;3.60;;
68188;SDS011;66299;47.514;19.218;2023-06-14T13:15:48;10.70;;;3.70;;
68188;SDS011;66299;47.514;19.218;2023-06-14T13:18:16;10.38;;;3.83;;
68188;SDS011;66299;47.514;19.218;2023-06-14T13:20:49;11.13;;;3.95;;
68188;SDS011;66299;47.514;19.218;2023-06-14T13:23:17;11.05;;;3.53;;
68188;SDS011;66299;47.514;19.218;2023-06-14T13:25:47;10.27;;;3.63;;
68188;SDS011;66299;47.514;19.218;2023-06-14T13:28:21;8.95;;;3.67;;
68188;SDS011;66299;47.514;19.218;2023-06-14T13:30:51;10.10;;;3.78;;
68188;SDS011;66299;47.514;19.218;2023-06-14T13:33:24;13.55;;;3.80;;
68188;SDS011;66299;47.514;19.218;2023-06-14T13:35:53;10.15;;;3.40;;
68188;SDS011;66299;47.514;19.218;2023-06-14T13:38:22;9.50;;;3.30;;
68188;SDS011;66299;47.514;19.218;2023-06-14T13:40:51;10.95;;;3.45;;
68188;SDS011;66299;47.514;19.218;2023-06-14T13:43:20;10.23;;;3.40;;
68188;SDS011;66299;47.514;19.218;2023-06-14T13:45:53;9.82;;;3.58;;
68188;SDS011;66299;47.514;19.218;2023-06-14T13:48:27;10.80;;;3.50;;
68188;SDS011;66299;47.514;19.218;2023-06-14T13:50:57;11.32;;;3.53;;
68188;SDS011;66299;47.514;19.218;2023-06-14T13:53:27;10.03;;;3.57;;
68188;SDS011;66299;47.514;19.218;2023-06-14T13:55:56;12.40;;;3.38;;
68188;SDS011;66299;47.514;19.218;2023-06-14T13:58:28;8.82;;;3.55;;
68188;SDS011;66299;47.514;19.218;2023-06-14T14:00:59;8.27;;;3.30;;
68188;SDS011;66299;47.514;19.218;2023-06-14T14:03:29;8.77;;;3.13;;
68188;SDS011;66299;47.514;19.218;2023-06-14T14:05:58;10.60;;;3.30;;
68188;SDS011;66299;47.514;19.218;2023-06-14T14:08:29;9.55;;;3.20;;
68188;SDS011;66299;47.514;19.218;2023-06-14T14:10:58;11.20;;;3.40;;
68188;SDS011;66299;47.514;19.218;2023-06-14T14:13:30;10.57;;;3.38;;
68188;SDS011;66299;47.514;19.218;2023-06-14T14:16:05;11.77;;;3.42;;
68188;SDS011;66299;47.514;19.218;2023-06-14T14:18:36;8.70;;;3.20;;
68188;SDS011;66299;47.514;19.218;2023-06-14T14:21:06;9.77;;;3.42;;
68188;SDS011;66299;47.514;19.218;2023-06-14T14:23:36;9.50;;;3.08;;
68188;SDS011;66299;47.514;19.218;2023-06-14T14:26:07;10.85;;;3.63;;
68188;SDS011;66299;47.514;19.218;2023-06-14T14:28:37;10.00;;;3.40;;
68188;SDS011;66299;47.514;19.218;2023-06-14T14:31:07;8.50;;;3.58;;
68188;SDS011;66299;47.514;19.218;2023-06-14T14:33:36;9.18;;;3.60;;
68188;SDS011;66299;47.514;19.218;2023-06-14T14:36:05;8.75;;;3.38;;
68188;SDS011;66299;47.514;19.218;2023-06-14T14:38:35;11.40;;;3.38;;
68188;SDS011;66299;47.514;19.218;2023-06-14T14:41:04;10.73;;;3.10;;
68188;SDS011;66299;47.514;19.218;2023-06-14T14:43:33;8.65;;;3.35;;
68188;SDS011;66299;47.514;19.218;2023-06-14T14:46:01;11.30;;;3.30;;
68188;SDS011;66299;47.514;19.218;2023-06-14T14:48:34;10.52;;;3.10;;
68188;SDS011;66299;47.514;19.218;2023-06-14T14:51:06;12.20;;;3.10;;
68188;SDS011;66299;47.514;19.218;2023-06-14T14:53:39;12.18;;;3.75;;
68188;SDS011;66299;47.514;19.218;2023-06-14T14:56:07;8.73;;;3.17;;
68188;SDS011;66299;47.514;19.218;2023-06-14T14:58:36;10.45;;;3.10;;
68188;SDS011;66299;47.514;19.218;2023-06-14T15:01:05;9.02;;;3.20;;
68188;SDS011;66299;47.514;19.218;2023-06-14T15:03:42;8.77;;;3.20;;
68188;SDS011;66299;47.514;19.218;2023-06-14T15:06:25;8.35;;;3.20;;